Portada
METAR-TAF:

METAR-TAF

Aeropuertos :

Aeropuerto de Albacete

Albacete, España

latitud: 38-57N, longitud: 001-51W, altitud: 702 m

Observación

El informe se hizo hace 32 minutos, a las 23:00 UTC
Viento 11 kt del norte-noroeste
Temperatura 9°C
Humedad 93%
Presión 1011 hPa
Visibilidad 10 km o más
Cielo nuboso a una altura de 1100 ft
Cielo nuboso a una altura de 2000 ft

METAR: LEAB 312300Z 34011KT 9999 BKN011 BKN020 09/08 Q1011 NOSIG

Hora: 01:32 (23:32 UTC)

Pronóstico

El informe se hizo hace 3 horas y 32 minutos, a las 20:00 UTC
Pronóstico válido del 31 a las 21 UTC al 01 a las 06 UTC
Viento 5 kt con dirección variable
Visibilidad 10 km o más
Nubes dispersas a una altura de 1800 ft
Cielo nuboso a una altura de 3500 ft
Probabilidad 40% :
Temporalmente
del 31 a las 21 UTC al 01 a las 06 UTC
Visibilidad: 4000 m
Cielo cubierto a una altura de 800 ft
lluvia

TAF: LEAB 312000Z 3121/0106 VRB05KT 9999 SCT018 BKN035 PROB40 TEMPO 3121/0106 4000 RA OVC008

Observaciones y pronósticos meteorológicos de más de 4000 aeropuertos (mensajes METAR y TAF).

Los puntos amarillos y rojos representan las estaciones disponibles.

Ponga el ratón en el punto deseado para ver el nombre de la estación.

Haga clic para ver las observaciones y los pronósticos meteorológicos.

Para cambiar el mapa : haga clic en los botones verdes con una cruz de color negro para hacer un zoom, en el botón verde con un guión para alejar o en las flechas verdes para mapas adyacentes.


METAR-TAF: